Terminal Aerodrome Forecast
Issued by NWS

Home | Current Version | Previous Version | Text Only | Print | Product List | Glossary On
Versions: 1 2 3 4 5 6 7 8 9 10 11 12 13
000
FTUS43 KGRB 011127
TAFMTW
TAF
KMTW 011127Z 0112/0212 36007KT P6SM OVC020
      TEMPO 0115/0118 SCT025
     FM011800 02006KT P6SM SCT030
     FM012100 09008KT P6SM FEW040
     FM020100 VRB03KT P6SM SKC=

USA.gov is the U.S. government's official web portal to all federal, state and local government web resources and services.